Bookmark and Share
Track history (hours):
 

Zealand Delilah

Last reported at 2014-Apr-23 19:33 UTC. Time now 2014-Apr-24 03:52 UTC.
Position N 44°02' W 076°28'.

Length 134 m; draft 5.5 m.

Type: Ship. MMSI: 245935000.

NotesDate/timePositionNaut miles runAvg speedWind from/ knotsBaromVisibWave heightAir tempDewpointWater temp
2014-Apr-23 19:33N 44°02' W 076°28'1111.0
2014-Apr-23 18:32N 44°11' W 076°19'93 8.1
2014-Apr-23 07:06N 45°04' W 074°32'5 9.2
2014-Apr-23 06:33N 45°08' W 074°27'1010.4
2014-Apr-23 05:34N 45°14' W 074°15'9 9.2
2014-Apr-23 04:33N 45°14' W 074°02'6 6.4
2014-Apr-23 03:34N 45°18' W 073°56'1 0.8
2014-Apr-23 02:33N 45°19' W 073°55'6 6.4
2014-Apr-23 01:33N 45°23' W 073°48'7 7.4
2014-Apr-23 00:33N 45°24' W 073°38'3 3.0
2014-Apr-22 23:34N 45°24' W 073°33'2 1.9
2014-Apr-22 22:33N 45°25' W 073°31'5 4.8
2014-Apr-22 21:33N 45°30' W 073°31'3 3.3
2014-Apr-22 20:33N 45°33' W 073°31'4 4.0
2014-Apr-22 19:33N 45°37' W 073°30'0 0.0
2014-Apr-22 18:33N 45°37' W 073°30'0 0.0
2014-Apr-22 17:33N 45°37' W 073°30'0 0.0
2014-Apr-22 16:33N 45°37' W 073°30'0 0.0
2014-Apr-22 15:33N 45°37' W 073°30'0 0.0
2014-Apr-22 14:34N 45°37' W 073°30'2 1.9
2014-Apr-22 13:33N 45°38' W 073°29'1010.0
2014-Apr-22 12:33N 45°47' W 073°21'31 9.8
2014-Apr-22 09:25N 46°11' W 072°54'1112.2
2014-Apr-22 08:33N 46°16' W 072°40'9 8.8
2014-Apr-22 07:33N 46°21' W 072°30'10 9.8
2014-Apr-22 06:33N 46°26' W 072°18'  

Dump ship's entire track history

sailing weather and tide predictions

Zealand Delilah — PBZI — position and weather